sensor_id;sensor_type;location;lat;lon;timestamp;P1;durP1;ratioP1;P2;durP2;ratioP2
73100;SDS011;61288;53.446;-2.266;2024-02-14T00:00:07;21.23;;;8.38;;
73100;SDS011;61288;53.446;-2.266;2024-02-14T00:02:39;24.42;;;8.15;;
73100;SDS011;61288;53.446;-2.266;2024-02-14T00:05:06;22.27;;;8.27;;
73100;SDS011;61288;53.446;-2.266;2024-02-14T00:07:32;21.75;;;7.57;;
73100;SDS011;61288;53.446;-2.266;2024-02-14T00:09:58;26.88;;;8.48;;
73100;SDS011;61288;53.446;-2.266;2024-02-14T00:12:23;21.38;;;8.35;;
73100;SDS011;61288;53.446;-2.266;2024-02-14T00:14:50;23.33;;;8.85;;
73100;SDS011;61288;53.446;-2.266;2024-02-14T00:17:15;24.75;;;7.63;;
73100;SDS011;61288;53.446;-2.266;2024-02-14T00:19:41;21.65;;;7.45;;
73100;SDS011;61288;53.446;-2.266;2024-02-14T00:22:06;23.23;;;8.25;;
73100;SDS011;61288;53.446;-2.266;2024-02-14T00:24:32;26.60;;;8.02;;
73100;SDS011;61288;53.446;-2.266;2024-02-14T00:26:59;19.27;;;6.95;;
73100;SDS011;61288;53.446;-2.266;2024-02-14T00:29:26;23.52;;;7.18;;
73100;SDS011;61288;53.446;-2.266;2024-02-14T00:31:51;23.88;;;7.72;;
73100;SDS011;61288;53.446;-2.266;2024-02-14T00:34:17;23.30;;;7.95;;
73100;SDS011;61288;53.446;-2.266;2024-02-14T00:36:44;25.30;;;8.65;;
73100;SDS011;61288;53.446;-2.266;2024-02-14T00:39:09;22.95;;;7.70;;
73100;SDS011;61288;53.446;-2.266;2024-02-14T00:41:35;23.52;;;8.07;;
73100;SDS011;61288;53.446;-2.266;2024-02-14T00:44:01;22.92;;;8.07;;
73100;SDS011;61288;53.446;-2.266;2024-02-14T00:46:28;22.13;;;7.18;;
73100;SDS011;61288;53.446;-2.266;2024-02-14T00:48:54;23.10;;;7.70;;
73100;SDS011;61288;53.446;-2.266;2024-02-14T00:51:21;20.63;;;7.78;;
73100;SDS011;61288;53.446;-2.266;2024-02-14T00:53:47;21.08;;;7.25;;
73100;SDS011;61288;53.446;-2.266;2024-02-14T00:56:13;22.45;;;7.43;;
73100;SDS011;61288;53.446;-2.266;2024-02-14T00:58:38;24.70;;;8.18;;
73100;SDS011;61288;53.446;-2.266;2024-02-14T01:01:05;18.67;;;7.15;;
73100;SDS011;61288;53.446;-2.266;2024-02-14T01:03:32;21.40;;;8.05;;
73100;SDS011;61288;53.446;-2.266;2024-02-14T01:05:57;22.50;;;8.25;;
73100;SDS011;61288;53.446;-2.266;2024-02-14T01:08:23;22.58;;;7.82;;
73100;SDS011;61288;53.446;-2.266;2024-02-14T01:10:49;22.63;;;7.20;;
73100;SDS011;61288;53.446;-2.266;2024-02-14T01:13:17;21.30;;;7.60;;
73100;SDS011;61288;53.446;-2.266;2024-02-14T01:15:43;20.75;;;7.45;;
73100;SDS011;61288;53.446;-2.266;2024-02-14T01:18:08;21.05;;;7.13;;
73100;SDS011;61288;53.446;-2.266;2024-02-14T01:20:35;19.55;;;7.00;;
73100;SDS011;61288;53.446;-2.266;2024-02-14T01:23:00;20.35;;;6.05;;
73100;SDS011;61288;53.446;-2.266;2024-02-14T01:25:26;22.05;;;7.78;;
73100;SDS011;61288;53.446;-2.266;2024-02-14T01:27:51;21.40;;;6.68;;
73100;SDS011;61288;53.446;-2.266;2024-02-14T01:30:17;21.13;;;6.97;;
73100;SDS011;61288;53.446;-2.266;2024-02-14T01:32:44;19.58;;;7.15;;
73100;SDS011;61288;53.446;-2.266;2024-02-14T01:35:09;19.67;;;6.80;;
73100;SDS011;61288;53.446;-2.266;2024-02-14T01:37:35;17.83;;;6.40;;
73100;SDS011;61288;53.446;-2.266;2024-02-14T01:40:00;15.60;;;5.63;;
73100;SDS011;61288;53.446;-2.266;2024-02-14T01:42:27;19.30;;;6.00;;
73100;SDS011;61288;53.446;-2.266;2024-02-14T01:44:54;15.82;;;5.10;;
73100;SDS011;61288;53.446;-2.266;2024-02-14T01:47:20;16.75;;;5.90;;
73100;SDS011;61288;53.446;-2.266;2024-02-14T01:49:46;18.90;;;6.07;;
73100;SDS011;61288;53.446;-2.266;2024-02-14T01:52:12;19.40;;;5.57;;
73100;SDS011;61288;53.446;-2.266;2024-02-14T01:54:38;18.63;;;5.50;;
73100;SDS011;61288;53.446;-2.266;2024-02-14T01:57:05;14.80;;;4.60;;
73100;SDS011;61288;53.446;-2.266;2024-02-14T01:59:31;15.63;;;5.20;;
73100;SDS011;61288;53.446;-2.266;2024-02-14T02:02:00;17.98;;;5.10;;
73100;SDS011;61288;53.446;-2.266;2024-02-14T02:04:25;18.08;;;5.50;;
73100;SDS011;61288;53.446;-2.266;2024-02-14T02:06:51;17.08;;;5.28;;
73100;SDS011;61288;53.446;-2.266;2024-02-14T02:09:21;16.30;;;5.10;;
73100;SDS011;61288;53.446;-2.266;2024-02-14T02:11:51;15.55;;;5.05;;
73100;SDS011;61288;53.446;-2.266;2024-02-14T02:14:21;16.45;;;4.78;;
73100;SDS011;61288;53.446;-2.266;2024-02-14T02:16:47;16.92;;;4.40;;
73100;SDS011;61288;53.446;-2.266;2024-02-14T02:19:13;19.98;;;4.70;;
73100;SDS011;61288;53.446;-2.266;2024-02-14T02:21:43;16.63;;;4.82;;
73100;SDS011;61288;53.446;-2.266;2024-02-14T02:24:27;17.77;;;4.45;;
73100;SDS011;61288;53.446;-2.266;2024-02-14T02:26:52;14.93;;;4.32;;
73100;SDS011;61288;53.446;-2.266;2024-02-14T02:29:19;17.00;;;4.93;;
73100;SDS011;61288;53.446;-2.266;2024-02-14T02:31:44;13.55;;;3.83;;
73100;SDS011;61288;53.446;-2.266;2024-02-14T02:34:10;16.77;;;4.18;;
73100;SDS011;61288;53.446;-2.266;2024-02-14T02:36:36;14.45;;;3.72;;
73100;SDS011;61288;53.446;-2.266;2024-02-14T02:39:03;15.80;;;4.57;;
73100;SDS011;61288;53.446;-2.266;2024-02-14T02:41:30;18.35;;;4.18;;
73100;SDS011;61288;53.446;-2.266;2024-02-14T02:43:57;14.00;;;3.85;;
73100;SDS011;61288;53.446;-2.266;2024-02-14T02:46:23;15.73;;;3.60;;
73100;SDS011;61288;53.446;-2.266;2024-02-14T02:48:51;12.40;;;3.55;;
73100;SDS011;61288;53.446;-2.266;2024-02-14T02:51:20;12.32;;;3.15;;
73100;SDS011;61288;53.446;-2.266;2024-02-14T02:53:46;15.27;;;2.92;;
73100;SDS011;61288;53.446;-2.266;2024-02-14T02:56:12;13.55;;;3.63;;
73100;SDS011;61288;53.446;-2.266;2024-02-14T02:58:38;15.20;;;4.43;;
73100;SDS011;61288;53.446;-2.266;2024-02-14T03:01:07;13.50;;;3.15;;
73100;SDS011;61288;53.446;-2.266;2024-02-14T03:03:34;11.15;;;2.55;;
73100;SDS011;61288;53.446;-2.266;2024-02-14T03:06:03;11.32;;;3.53;;
73100;SDS011;61288;53.446;-2.266;2024-02-14T03:08:29;14.90;;;3.47;;
73100;SDS011;61288;53.446;-2.266;2024-02-14T03:10:56;13.50;;;2.78;;
73100;SDS011;61288;53.446;-2.266;2024-02-14T03:13:24;13.18;;;2.92;;
73100;SDS011;61288;53.446;-2.266;2024-02-14T03:15:51;13.70;;;2.80;;
73100;SDS011;61288;53.446;-2.266;2024-02-14T03:18:17;15.55;;;3.28;;
73100;SDS011;61288;53.446;-2.266;2024-02-14T03:20:43;9.82;;;2.55;;
73100;SDS011;61288;53.446;-2.266;2024-02-14T03:23:08;10.80;;;2.90;;
73100;SDS011;61288;53.446;-2.266;2024-02-14T03:25:34;12.13;;;2.95;;
73100;SDS011;61288;53.446;-2.266;2024-02-14T03:28:02;9.35;;;2.40;;
73100;SDS011;61288;53.446;-2.266;2024-02-14T03:30:34;10.10;;;2.42;;
73100;SDS011;61288;53.446;-2.266;2024-02-14T03:33:00;13.02;;;2.35;;
73100;SDS011;61288;53.446;-2.266;2024-02-14T03:35:26;11.48;;;2.20;;
73100;SDS011;61288;53.446;-2.266;2024-02-14T03:37:52;10.15;;;2.30;;
73100;SDS011;61288;53.446;-2.266;2024-02-14T03:40:18;11.85;;;2.15;;
73100;SDS011;61288;53.446;-2.266;2024-02-14T03:42:48;8.98;;;2.15;;
73100;SDS011;61288;53.446;-2.266;2024-02-14T03:45:13;7.47;;;1.95;;
73100;SDS011;61288;53.446;-2.266;2024-02-14T03:47:39;9.18;;;2.25;;
73100;SDS011;61288;53.446;-2.266;2024-02-14T03:50:05;8.80;;;2.10;;
73100;SDS011;61288;53.446;-2.266;2024-02-14T03:52:32;7.80;;;1.90;;
73100;SDS011;61288;53.446;-2.266;2024-02-14T03:54:58;7.68;;;1.83;;
73100;SDS011;61288;53.446;-2.266;2024-02-14T03:57:25;7.35;;;1.80;;
73100;SDS011;61288;53.446;-2.266;2024-02-14T03:59:53;6.85;;;1.80;;
73100;SDS011;61288;53.446;-2.266;2024-02-14T04:02:19;9.25;;;1.88;;
73100;SDS011;61288;53.446;-2.266;2024-02-14T04:04:45;9.93;;;1.60;;
73100;SDS011;61288;53.446;-2.266;2024-02-14T04:07:12;8.23;;;1.45;;
73100;SDS011;61288;53.446;-2.266;2024-02-14T04:09:38;5.72;;;1.50;;
73100;SDS011;61288;53.446;-2.266;2024-02-14T04:12:04;6.72;;;1.75;;
73100;SDS011;61288;53.446;-2.266;2024-02-14T04:14:31;4.20;;;1.55;;
73100;SDS011;61288;53.446;-2.266;2024-02-14T04:16:57;7.93;;;1.55;;
73100;SDS011;61288;53.446;-2.266;2024-02-14T04:19:22;4.93;;;1.50;;
73100;SDS011;61288;53.446;-2.266;2024-02-14T04:21:51;4.70;;;1.50;;
73100;SDS011;61288;53.446;-2.266;2024-02-14T04:24:16;3.95;;;1.48;;
73100;SDS011;61288;53.446;-2.266;2024-02-14T04:26:42;3.25;;;1.35;;
73100;SDS011;61288;53.446;-2.266;2024-02-14T04:29:10;4.03;;;1.30;;
73100;SDS011;61288;53.446;-2.266;2024-02-14T04:31:36;4.95;;;1.40;;
73100;SDS011;61288;53.446;-2.266;2024-02-14T04:34:02;5.95;;;1.40;;
73100;SDS011;61288;53.446;-2.266;2024-02-14T04:36:28;2.40;;;1.45;;
73100;SDS011;61288;53.446;-2.266;2024-02-14T04:38:55;4.65;;;1.48;;
73100;SDS011;61288;53.446;-2.266;2024-02-14T04:41:22;3.80;;;1.35;;
73100;SDS011;61288;53.446;-2.266;2024-02-14T04:43:49;4.70;;;1.30;;
73100;SDS011;61288;53.446;-2.266;2024-02-14T04:46:14;4.50;;;1.40;;
73100;SDS011;61288;53.446;-2.266;2024-02-14T04:48:40;3.22;;;1.27;;
73100;SDS011;61288;53.446;-2.266;2024-02-14T04:51:06;5.93;;;1.42;;
73100;SDS011;61288;53.446;-2.266;2024-02-14T04:53:31;3.60;;;1.40;;
73100;SDS011;61288;53.446;-2.266;2024-02-14T04:55:57;3.42;;;1.23;;
73100;SDS011;61288;53.446;-2.266;2024-02-14T04:58:24;3.60;;;1.17;;
73100;SDS011;61288;53.446;-2.266;2024-02-14T05:00:51;4.03;;;1.50;;
73100;SDS011;61288;53.446;-2.266;2024-02-14T05:03:16;4.85;;;1.40;;
73100;SDS011;61288;53.446;-2.266;2024-02-14T05:05:42;7.20;;;1.30;;
73100;SDS011;61288;53.446;-2.266;2024-02-14T05:08:08;3.63;;;1.20;;
73100;SDS011;61288;53.446;-2.266;2024-02-14T05:10:33;3.55;;;1.50;;
73100;SDS011;61288;53.446;-2.266;2024-02-14T05:12:59;2.75;;;1.13;;
73100;SDS011;61288;53.446;-2.266;2024-02-14T05:15:24;2.20;;;1.23;;
73100;SDS011;61288;53.446;-2.266;2024-02-14T05:17:51;1.92;;;1.00;;
73100;SDS011;61288;53.446;-2.266;2024-02-14T05:20:17;4.18;;;1.17;;
73100;SDS011;61288;53.446;-2.266;2024-02-14T05:22:43;2.92;;;1.10;;
73100;SDS011;61288;53.446;-2.266;2024-02-14T05:25:08;1.98;;;1.20;;
73100;SDS011;61288;53.446;-2.266;2024-02-14T05:27:34;1.95;;;0.98;;
73100;SDS011;61288;53.446;-2.266;2024-02-14T05:30:01;2.92;;;1.08;;
73100;SDS011;61288;53.446;-2.266;2024-02-14T05:32:30;1.73;;;0.80;;
73100;SDS011;61288;53.446;-2.266;2024-02-14T05:34:57;1.77;;;1.00;;
73100;SDS011;61288;53.446;-2.266;2024-02-14T05:37:23;9.93;;;2.40;;
73100;SDS011;61288;53.446;-2.266;2024-02-14T05:39:48;3.78;;;1.08;;
73100;SDS011;61288;53.446;-2.266;2024-02-14T05:42:16;1.92;;;1.25;;
73100;SDS011;61288;53.446;-2.266;2024-02-14T05:44:42;5.15;;;1.45;;
73100;SDS011;61288;53.446;-2.266;2024-02-14T05:47:08;3.88;;;1.50;;
73100;SDS011;61288;53.446;-2.266;2024-02-14T05:49:38;4.30;;;1.48;;
73100;SDS011;61288;53.446;-2.266;2024-02-14T05:52:07;3.38;;;1.48;;
73100;SDS011;61288;53.446;-2.266;2024-02-14T05:54:32;4.25;;;1.50;;
73100;SDS011;61288;53.446;-2.266;2024-02-14T05:56:58;3.33;;;1.60;;
73100;SDS011;61288;53.446;-2.266;2024-02-14T05:59:23;4.93;;;1.70;;
73100;SDS011;61288;53.446;-2.266;2024-02-14T06:01:51;3.83;;;1.60;;
73100;SDS011;61288;53.446;-2.266;2024-02-14T06:04:16;5.93;;;1.40;;
73100;SDS011;61288;53.446;-2.266;2024-02-14T06:06:42;4.97;;;2.03;;
73100;SDS011;61288;53.446;-2.266;2024-02-14T06:09:07;4.35;;;1.67;;
73100;SDS011;61288;53.446;-2.266;2024-02-14T06:11:36;4.28;;;1.35;;
73100;SDS011;61288;53.446;-2.266;2024-02-14T06:14:04;4.50;;;1.90;;
73100;SDS011;61288;53.446;-2.266;2024-02-14T06:16:33;4.43;;;1.50;;
73100;SDS011;61288;53.446;-2.266;2024-02-14T06:18:59;5.47;;;1.52;;
73100;SDS011;61288;53.446;-2.266;2024-02-14T06:21:26;4.15;;;1.30;;
73100;SDS011;61288;53.446;-2.266;2024-02-14T06:23:52;2.70;;;1.00;;
73100;SDS011;61288;53.446;-2.266;2024-02-14T06:26:18;3.30;;;1.58;;
73100;SDS011;61288;53.446;-2.266;2024-02-14T06:28:44;3.40;;;1.60;;
73100;SDS011;61288;53.446;-2.266;2024-02-14T06:31:10;2.45;;;1.45;;
73100;SDS011;61288;53.446;-2.266;2024-02-14T06:33:36;3.80;;;1.33;;
73100;SDS011;61288;53.446;-2.266;2024-02-14T06:36:02;4.07;;;1.30;;
73100;SDS011;61288;53.446;-2.266;2024-02-14T06:38:28;2.20;;;1.27;;
73100;SDS011;61288;53.446;-2.266;2024-02-14T06:40:53;4.45;;;1.42;;
73100;SDS011;61288;53.446;-2.266;2024-02-14T06:43:19;4.20;;;1.20;;
73100;SDS011;61288;53.446;-2.266;2024-02-14T06:45:45;3.25;;;1.40;;
73100;SDS011;61288;53.446;-2.266;2024-02-14T06:48:11;1.73;;;1.25;;
73100;SDS011;61288;53.446;-2.266;2024-02-14T06:50:36;2.90;;;1.20;;
73100;SDS011;61288;53.446;-2.266;2024-02-14T06:53:02;4.05;;;1.30;;
73100;SDS011;61288;53.446;-2.266;2024-02-14T06:55:27;4.80;;;1.33;;
73100;SDS011;61288;53.446;-2.266;2024-02-14T06:57:54;3.42;;;1.33;;
73100;SDS011;61288;53.446;-2.266;2024-02-14T07:00:20;5.75;;;1.30;;
73100;SDS011;61288;53.446;-2.266;2024-02-14T07:02:45;3.22;;;1.38;;
73100;SDS011;61288;53.446;-2.266;2024-02-14T07:05:13;4.00;;;1.30;;
73100;SDS011;61288;53.446;-2.266;2024-02-14T07:07:40;2.42;;;1.50;;
73100;SDS011;61288;53.446;-2.266;2024-02-14T07:10:06;1.83;;;1.17;;
73100;SDS011;61288;53.446;-2.266;2024-02-14T07:12:32;5.93;;;1.20;;
73100;SDS011;61288;53.446;-2.266;2024-02-14T07:14:58;2.85;;;1.13;;
73100;SDS011;61288;53.446;-2.266;2024-02-14T07:17:23;5.82;;;1.55;;
73100;SDS011;61288;53.446;-2.266;2024-02-14T07:19:49;2.70;;;1.42;;
73100;SDS011;61288;53.446;-2.266;2024-02-14T07:22:18;2.60;;;1.55;;
73100;SDS011;61288;53.446;-2.266;2024-02-14T07:24:46;3.28;;;1.40;;
73100;SDS011;61288;53.446;-2.266;2024-02-14T07:27:14;3.17;;;1.20;;
73100;SDS011;61288;53.446;-2.266;2024-02-14T07:29:41;5.72;;;2.03;;
73100;SDS011;61288;53.446;-2.266;2024-02-14T07:32:07;3.97;;;1.60;;
73100;SDS011;61288;53.446;-2.266;2024-02-14T07:34:32;4.18;;;1.15;;
73100;SDS011;61288;53.446;-2.266;2024-02-14T07:36:58;3.75;;;1.40;;
73100;SDS011;61288;53.446;-2.266;2024-02-14T07:39:23;5.60;;;1.70;;
73100;SDS011;61288;53.446;-2.266;2024-02-14T07:41:50;2.90;;;1.30;;
73100;SDS011;61288;53.446;-2.266;2024-02-14T07:44:17;4.25;;;1.40;;
73100;SDS011;61288;53.446;-2.266;2024-02-14T07:46:43;4.78;;;1.33;;
73100;SDS011;61288;53.446;-2.266;2024-02-14T07:49:09;4.35;;;1.63;;
73100;SDS011;61288;53.446;-2.266;2024-02-14T07:51:36;3.20;;;1.55;;
73100;SDS011;61288;53.446;-2.266;2024-02-14T07:54:05;3.08;;;1.40;;
73100;SDS011;61288;53.446;-2.266;2024-02-14T07:56:31;2.53;;;1.25;;
73100;SDS011;61288;53.446;-2.266;2024-02-14T07:58:57;3.28;;;1.40;;
73100;SDS011;61288;53.446;-2.266;2024-02-14T08:01:23;4.60;;;1.63;;
73100;SDS011;61288;53.446;-2.266;2024-02-14T08:03:49;5.28;;;1.50;;
73100;SDS011;61288;53.446;-2.266;2024-02-14T08:06:14;3.33;;;1.48;;
73100;SDS011;61288;53.446;-2.266;2024-02-14T08:08:40;4.07;;;1.30;;
73100;SDS011;61288;53.446;-2.266;2024-02-14T08:11:06;5.75;;;1.50;;
73100;SDS011;61288;53.446;-2.266;2024-02-14T08:13:35;5.20;;;1.58;;
73100;SDS011;61288;53.446;-2.266;2024-02-14T08:16:02;7.53;;;1.75;;
73100;SDS011;61288;53.446;-2.266;2024-02-14T08:18:28;3.42;;;1.83;;
73100;SDS011;61288;53.446;-2.266;2024-02-14T08:20:53;5.07;;;1.30;;
73100;SDS011;61288;53.446;-2.266;2024-02-14T08:23:19;4.13;;;1.50;;
73100;SDS011;61288;53.446;-2.266;2024-02-14T08:25:45;4.10;;;1.33;;
73100;SDS011;61288;53.446;-2.266;2024-02-14T08:28:11;4.80;;;1.50;;
73100;SDS011;61288;53.446;-2.266;2024-02-14T08:30:36;5.32;;;1.95;;
73100;SDS011;61288;53.446;-2.266;2024-02-14T08:33:03;4.07;;;1.40;;
73100;SDS011;61288;53.446;-2.266;2024-02-14T08:35:28;5.05;;;1.40;;
73100;SDS011;61288;53.446;-2.266;2024-02-14T08:37:54;7.35;;;1.60;;
73100;SDS011;61288;53.446;-2.266;2024-02-14T08:40:20;5.55;;;1.50;;
73100;SDS011;61288;53.446;-2.266;2024-02-14T08:42:46;7.07;;;1.60;;
73100;SDS011;61288;53.446;-2.266;2024-02-14T08:45:15;4.07;;;1.50;;
73100;SDS011;61288;53.446;-2.266;2024-02-14T08:47:43;6.45;;;1.70;;
73100;SDS011;61288;53.446;-2.266;2024-02-14T08:50:09;5.10;;;1.75;;
73100;SDS011;61288;53.446;-2.266;2024-02-14T08:52:34;6.93;;;2.15;;
73100;SDS011;61288;53.446;-2.266;2024-02-14T08:55:00;7.30;;;1.60;;
73100;SDS011;61288;53.446;-2.266;2024-02-14T08:57:25;7.95;;;1.88;;
73100;SDS011;61288;53.446;-2.266;2024-02-14T08:59:51;4.65;;;1.70;;
73100;SDS011;61288;53.446;-2.266;2024-02-14T09:02:17;8.82;;;1.60;;
73100;SDS011;61288;53.446;-2.266;2024-02-14T09:04:44;6.63;;;1.60;;
73100;SDS011;61288;53.446;-2.266;2024-02-14T09:07:09;10.18;;;1.55;;
73100;SDS011;61288;53.446;-2.266;2024-02-14T09:09:35;7.40;;;1.45;;
73100;SDS011;61288;53.446;-2.266;2024-02-14T09:12:03;4.90;;;1.60;;
73100;SDS011;61288;53.446;-2.266;2024-02-14T09:14:29;5.15;;;1.50;;
73100;SDS011;61288;53.446;-2.266;2024-02-14T09:16:56;5.68;;;1.40;;
73100;SDS011;61288;53.446;-2.266;2024-02-14T09:19:21;5.57;;;1.63;;
73100;SDS011;61288;53.446;-2.266;2024-02-14T09:21:47;5.53;;;1.58;;
73100;SDS011;61288;53.446;-2.266;2024-02-14T09:24:13;7.78;;;1.83;;
73100;SDS011;61288;53.446;-2.266;2024-02-14T09:26:38;5.28;;;2.08;;
73100;SDS011;61288;53.446;-2.266;2024-02-14T09:29:04;6.72;;;1.60;;
73100;SDS011;61288;53.446;-2.266;2024-02-14T09:31:30;7.47;;;1.80;;
73100;SDS011;61288;53.446;-2.266;2024-02-14T09:33:55;10.52;;;1.80;;
73100;SDS011;61288;53.446;-2.266;2024-02-14T09:36:23;5.40;;;1.60;;
73100;SDS011;61288;53.446;-2.266;2024-02-14T09:38:50;7.25;;;1.80;;
73100;SDS011;61288;53.446;-2.266;2024-02-14T09:44:03;9.15;;;1.58;;
73100;SDS011;61288;53.446;-2.266;2024-02-14T09:46:29;6.18;;;1.58;;
73100;SDS011;61288;53.446;-2.266;2024-02-14T09:48:58;6.30;;;1.60;;
73100;SDS011;61288;53.446;-2.266;2024-02-14T09:51:27;8.57;;;1.55;;
73100;SDS011;61288;53.446;-2.266;2024-02-14T09:53:54;4.65;;;1.30;;
73100;SDS011;61288;53.446;-2.266;2024-02-14T09:56:21;7.85;;;1.52;;
73100;SDS011;61288;53.446;-2.266;2024-02-14T09:58:50;7.82;;;2.20;;
73100;SDS011;61288;53.446;-2.266;2024-02-14T10:01:21;6.95;;;1.83;;
73100;SDS011;61288;53.446;-2.266;2024-02-14T10:03:51;7.93;;;1.60;;
73100;SDS011;61288;53.446;-2.266;2024-02-14T10:06:20;7.88;;;1.88;;
73100;SDS011;61288;53.446;-2.266;2024-02-14T10:08:49;9.00;;;1.70;;
73100;SDS011;61288;53.446;-2.266;2024-02-14T10:11:16;7.10;;;1.73;;
73100;SDS011;61288;53.446;-2.266;2024-02-14T10:13:48;5.63;;;1.85;;
73100;SDS011;61288;53.446;-2.266;2024-02-14T10:16:15;10.52;;;1.90;;
73100;SDS011;61288;53.446;-2.266;2024-02-14T10:18:41;5.15;;;1.42;;
73100;SDS011;61288;53.446;-2.266;2024-02-14T10:21:08;6.18;;;1.75;;
73100;SDS011;61288;53.446;-2.266;2024-02-14T10:23:39;7.88;;;1.85;;
73100;SDS011;61288;53.446;-2.266;2024-02-14T10:26:05;7.43;;;1.98;;
73100;SDS011;61288;53.446;-2.266;2024-02-14T10:28:30;7.78;;;1.60;;
73100;SDS011;61288;53.446;-2.266;2024-02-14T10:30:58;6.97;;;1.60;;
73100;SDS011;61288;53.446;-2.266;2024-02-14T10:33:27;6.47;;;1.48;;
73100;SDS011;61288;53.446;-2.266;2024-02-14T10:35:54;6.40;;;1.30;;
73100;SDS011;61288;53.446;-2.266;2024-02-14T10:38:22;6.10;;;1.60;;
73100;SDS011;61288;53.446;-2.266;2024-02-14T10:40:48;7.80;;;2.30;;
73100;SDS011;61288;53.446;-2.266;2024-02-14T10:43:14;6.75;;;2.10;;
73100;SDS011;61288;53.446;-2.266;2024-02-14T10:45:40;4.10;;;1.55;;
73100;SDS011;61288;53.446;-2.266;2024-02-14T10:48:06;7.03;;;2.05;;
73100;SDS011;61288;53.446;-2.266;2024-02-14T10:50:40;6.13;;;2.03;;
73100;SDS011;61288;53.446;-2.266;2024-02-14T10:53:06;7.10;;;1.83;;
73100;SDS011;61288;53.446;-2.266;2024-02-14T10:55:40;6.30;;;2.08;;
73100;SDS011;61288;53.446;-2.266;2024-02-14T10:58:07;7.90;;;1.90;;
73100;SDS011;61288;53.446;-2.266;2024-02-14T11:00:36;6.53;;;2.00;;
73100;SDS011;61288;53.446;-2.266;2024-02-14T11:03:03;8.15;;;2.03;;
73100;SDS011;61288;53.446;-2.266;2024-02-14T11:05:30;6.38;;;1.92;;
73100;SDS011;61288;53.446;-2.266;2024-02-14T11:07:56;5.60;;;2.10;;
73100;SDS011;61288;53.446;-2.266;2024-02-14T11:10:22;9.00;;;2.20;;
73100;SDS011;61288;53.446;-2.266;2024-02-14T11:12:48;6.78;;;1.90;;
73100;SDS011;61288;53.446;-2.266;2024-02-14T11:15:22;4.90;;;1.75;;
73100;SDS011;61288;53.446;-2.266;2024-02-14T11:17:50;5.88;;;1.80;;
73100;SDS011;61288;53.446;-2.266;2024-02-14T11:20:19;4.35;;;1.75;;
73100;SDS011;61288;53.446;-2.266;2024-02-14T11:22:52;5.85;;;1.88;;
73100;SDS011;61288;53.446;-2.266;2024-02-14T11:25:22;4.40;;;1.80;;
73100;SDS011;61288;53.446;-2.266;2024-02-14T11:27:55;3.60;;;1.60;;
73100;SDS011;61288;53.446;-2.266;2024-02-14T11:30:28;4.10;;;1.73;;
73100;SDS011;61288;53.446;-2.266;2024-02-14T11:33:16;3.92;;;1.38;;
73100;SDS011;61288;53.446;-2.266;2024-02-14T11:35:49;2.28;;;1.25;;
73100;SDS011;61288;53.446;-2.266;2024-02-14T11:38:16;6.25;;;1.50;;
73100;SDS011;61288;53.446;-2.266;2024-02-14T11:40:43;3.88;;;1.50;;
73100;SDS011;61288;53.446;-2.266;2024-02-14T11:43:10;3.78;;;1.60;;
73100;SDS011;61288;53.446;-2.266;2024-02-14T11:45:37;3.08;;;1.27;;
73100;SDS011;61288;53.446;-2.266;2024-02-14T11:48:08;3.97;;;1.33;;
73100;SDS011;61288;53.446;-2.266;2024-02-14T11:50:35;4.05;;;1.42;;
73100;SDS011;61288;53.446;-2.266;2024-02-14T11:53:04;5.78;;;1.63;;
73100;SDS011;61288;53.446;-2.266;2024-02-14T11:55:31;6.20;;;1.50;;
73100;SDS011;61288;53.446;-2.266;2024-02-14T11:57:57;6.38;;;1.30;;
73100;SDS011;61288;53.446;-2.266;2024-02-14T12:00:25;2.17;;;1.23;;
73100;SDS011;61288;53.446;-2.266;2024-02-14T12:02:51;3.17;;;1.20;;
73100;SDS011;61288;53.446;-2.266;2024-02-14T12:05:18;2.42;;;0.95;;
73100;SDS011;61288;53.446;-2.266;2024-02-14T12:07:44;3.90;;;1.30;;
73100;SDS011;61288;53.446;-2.266;2024-02-14T12:10:10;3.83;;;1.20;;
73100;SDS011;61288;53.446;-2.266;2024-02-14T12:12:37;3.75;;;1.30;;
73100;SDS011;61288;53.446;-2.266;2024-02-14T12:15:03;3.00;;;1.00;;
73100;SDS011;61288;53.446;-2.266;2024-02-14T12:17:31;3.65;;;1.20;;
73100;SDS011;61288;53.446;-2.266;2024-02-14T12:20:09;3.50;;;1.40;;
73100;SDS011;61288;53.446;-2.266;2024-02-14T12:22:37;2.80;;;1.30;;
73100;SDS011;61288;53.446;-2.266;2024-02-14T12:25:03;3.92;;;1.20;;
73100;SDS011;61288;53.446;-2.266;2024-02-14T12:27:32;4.80;;;1.40;;
73100;SDS011;61288;53.446;-2.266;2024-02-14T12:29:58;3.63;;;1.40;;
73100;SDS011;61288;53.446;-2.266;2024-02-14T12:32:23;6.18;;;1.25;;
73100;SDS011;61288;53.446;-2.266;2024-02-14T12:34:49;5.75;;;1.35;;
73100;SDS011;61288;53.446;-2.266;2024-02-14T12:37:14;6.65;;;1.65;;
73100;SDS011;61288;53.446;-2.266;2024-02-14T12:39:40;4.97;;;1.48;;
73100;SDS011;61288;53.446;-2.266;2024-02-14T12:42:06;5.30;;;1.52;;
73100;SDS011;61288;53.446;-2.266;2024-02-14T12:44:31;5.78;;;1.30;;
73100;SDS011;61288;53.446;-2.266;2024-02-14T12:46:57;4.75;;;1.30;;
73100;SDS011;61288;53.446;-2.266;2024-02-14T12:49:22;3.92;;;1.40;;
73100;SDS011;61288;53.446;-2.266;2024-02-14T12:51:51;4.97;;;1.33;;
73100;SDS011;61288;53.446;-2.266;2024-02-14T12:54:17;5.20;;;1.40;;
73100;SDS011;61288;53.446;-2.266;2024-02-14T12:56:43;5.43;;;1.50;;
73100;SDS011;61288;53.446;-2.266;2024-02-14T12:59:08;6.63;;;1.80;;
73100;SDS011;61288;53.446;-2.266;2024-02-14T13:01:43;4.03;;;1.48;;
73100;SDS011;61288;53.446;-2.266;2024-02-14T13:04:09;6.47;;;1.83;;
73100;SDS011;61288;53.446;-2.266;2024-02-14T13:06:35;2.55;;;1.17;;
73100;SDS011;61288;53.446;-2.266;2024-02-14T13:09:02;8.27;;;1.27;;
73100;SDS011;61288;53.446;-2.266;2024-02-14T13:11:30;5.15;;;1.60;;
73100;SDS011;61288;53.446;-2.266;2024-02-14T13:13:57;5.68;;;2.08;;
73100;SDS011;61288;53.446;-2.266;2024-02-14T13:16:25;6.85;;;1.83;;
73100;SDS011;61288;53.446;-2.266;2024-02-14T13:18:52;5.93;;;2.17;;
73100;SDS011;61288;53.446;-2.266;2024-02-14T13:21:18;5.97;;;1.40;;
73100;SDS011;61288;53.446;-2.266;2024-02-14T13:23:43;6.95;;;1.95;;
73100;SDS011;61288;53.446;-2.266;2024-02-14T13:26:09;3.22;;;1.40;;
73100;SDS011;61288;53.446;-2.266;2024-02-14T13:28:34;6.25;;;1.70;;
73100;SDS011;61288;53.446;-2.266;2024-02-14T13:31:00;4.88;;;1.50;;
73100;SDS011;61288;53.446;-2.266;2024-02-14T13:33:26;5.15;;;1.52;;
73100;SDS011;61288;53.446;-2.266;2024-02-14T13:35:51;7.80;;;1.85;;
73100;SDS011;61288;53.446;-2.266;2024-02-14T13:38:17;6.57;;;1.90;;
73100;SDS011;61288;53.446;-2.266;2024-02-14T13:40:43;9.20;;;1.70;;
73100;SDS011;61288;53.446;-2.266;2024-02-14T13:43:08;6.32;;;1.80;;
73100;SDS011;61288;53.446;-2.266;2024-02-14T13:45:42;7.82;;;2.00;;
73100;SDS011;61288;53.446;-2.266;2024-02-14T13:48:08;4.22;;;1.23;;
73100;SDS011;61288;53.446;-2.266;2024-02-14T13:50:34;9.82;;;1.67;;
73100;SDS011;61288;53.446;-2.266;2024-02-14T13:53:00;9.70;;;1.70;;
73100;SDS011;61288;53.446;-2.266;2024-02-14T13:55:25;6.57;;;1.60;;
73100;SDS011;61288;53.446;-2.266;2024-02-14T13:57:51;8.85;;;1.73;;
73100;SDS011;61288;53.446;-2.266;2024-02-14T14:00:16;5.75;;;1.33;;
73100;SDS011;61288;53.446;-2.266;2024-02-14T14:02:42;8.50;;;1.85;;
73100;SDS011;61288;53.446;-2.266;2024-02-14T14:05:08;9.07;;;1.70;;
73100;SDS011;61288;53.446;-2.266;2024-02-14T14:07:38;8.95;;;1.70;;
73100;SDS011;61288;53.446;-2.266;2024-02-14T14:10:05;7.13;;;1.50;;
73100;SDS011;61288;53.446;-2.266;2024-02-14T14:12:33;13.13;;;1.98;;
73100;SDS011;61288;53.446;-2.266;2024-02-14T14:14:59;7.80;;;2.15;;
73100;SDS011;61288;53.446;-2.266;2024-02-14T14:17:25;11.52;;;1.70;;
73100;SDS011;61288;53.446;-2.266;2024-02-14T14:19:51;8.15;;;2.00;;
73100;SDS011;61288;53.446;-2.266;2024-02-14T14:22:17;6.32;;;1.60;;
73100;SDS011;61288;53.446;-2.266;2024-02-14T14:24:42;16.15;;;2.47;;
73100;SDS011;61288;53.446;-2.266;2024-02-14T14:27:08;10.95;;;1.77;;
73100;SDS011;61288;53.446;-2.266;2024-02-14T14:29:40;7.95;;;1.58;;